sensor_id;sensor_type;location;lat;lon;timestamp;pressure;altitude;pressure_sealevel;temperature;humidity
31062;BME280;17724;53.546;9.974;2024-03-23T00:54:54;100770.28;;;9.53;94.30
31062;BME280;17724;53.546;9.974;2024-03-23T00:58:55;100765.16;;;9.40;95.68
31062;BME280;17724;53.546;9.974;2024-03-23T01:02:56;100781.69;;;9.61;94.90
31062;BME280;17724;53.546;9.974;2024-03-23T01:06:56;100752.19;;;9.35;96.48
31062;BME280;17724;53.546;9.974;2024-03-23T01:10:58;100765.41;;;9.77;95.66
31062;BME280;17724;53.546;9.974;2024-03-23T01:14:58;100758.53;;;9.74;94.70
31062;BME280;17724;53.546;9.974;2024-03-23T01:18:59;100747.91;;;9.61;95.60
31062;BME280;17724;53.546;9.974;2024-03-23T01:22:59;100745.44;;;9.43;96.29
31062;BME280;17724;53.546;9.974;2024-03-23T01:27:00;100724.66;;;9.47;96.70
31062;BME280;17724;53.546;9.974;2024-03-23T01:31:00;100743.13;;;9.34;96.70
31062;BME280;17724;53.546;9.974;2024-03-23T01:35:01;100735.75;;;9.18;98.38
31062;BME280;17724;53.546;9.974;2024-03-23T01:39:01;100734.81;;;9.29;98.68
31062;BME280;17724;53.546;9.974;2024-03-23T01:43:04;100716.66;;;9.45;97.88
31062;BME280;17724;53.546;9.974;2024-03-23T01:47:06;100721.97;;;9.52;97.11
31062;BME280;17724;53.546;9.974;2024-03-23T01:51:07;100714.56;;;9.52;97.09
31062;BME280;17724;53.546;9.974;2024-03-23T01:55:08;100710.81;;;9.58;96.96
31062;BME280;17724;53.546;9.974;2024-03-23T01:59:09;100701.34;;;9.49;97.06
31062;BME280;17724;53.546;9.974;2024-03-23T02:03:25;100702.69;;;9.69;96.34
31062;BME280;17724;53.546;9.974;2024-03-23T02:07:26;100690.28;;;9.44;97.08
31062;BME280;17724;53.546;9.974;2024-03-23T02:11:27;100688.47;;;9.50;95.90
31062;BME280;17724;53.546;9.974;2024-03-23T02:15:27;100684.34;;;9.30;96.48
31062;BME280;17724;53.546;9.974;2024-03-23T02:19:28;100677.84;;;9.36;97.02
31062;BME280;17724;53.546;9.974;2024-03-23T02:23:29;100660.19;;;9.10;97.17
31062;BME280;17724;53.546;9.974;2024-03-23T02:27:29;100657.91;;;9.24;98.31
31062;BME280;17724;53.546;9.974;2024-03-23T02:31:30;100653.66;;;8.95;99.35
31062;BME280;17724;53.546;9.974;2024-03-23T02:35:30;100647.38;;;9.16;98.74
31062;BME280;17724;53.546;9.974;2024-03-23T02:39:31;100656.56;;;8.88;99.05
31062;BME280;17724;53.546;9.974;2024-03-23T02:43:31;100649.38;;;9.04;98.65
31062;BME280;17724;53.546;9.974;2024-03-23T02:47:32;100636.53;;;9.26;98.89
31062;BME280;17724;53.546;9.974;2024-03-23T02:51:33;100645.41;;;9.33;97.32
31062;BME280;17724;53.546;9.974;2024-03-23T02:55:33;100641.66;;;9.01;97.39
31062;BME280;17724;53.546;9.974;2024-03-23T02:59:34;100641.00;;;9.32;97.23
31062;BME280;17724;53.546;9.974;2024-03-23T03:03:34;100643.84;;;9.21;97.83
31062;BME280;17724;53.546;9.974;2024-03-23T03:07:35;100631.50;;;9.40;97.31
31062;BME280;17724;53.546;9.974;2024-03-23T03:11:35;100621.03;;;9.15;97.14
31062;BME280;17724;53.546;9.974;2024-03-23T03:15:36;100614.13;;;9.12;97.38
31062;BME280;17724;53.546;9.974;2024-03-23T03:19:36;100610.28;;;9.13;97.24
31062;BME280;17724;53.546;9.974;2024-03-23T03:23:37;100621.41;;;9.24;97.03
31062;BME280;17724;53.546;9.974;2024-03-23T03:27:38;100612.34;;;9.23;96.97
31062;BME280;17724;53.546;9.974;2024-03-23T03:31:39;100595.28;;;8.99;98.68
31062;BME280;17724;53.546;9.974;2024-03-23T03:35:39;100597.16;;;8.94;98.40
31062;BME280;17724;53.546;9.974;2024-03-23T03:39:40;100586.56;;;9.02;99.55
31062;BME280;17724;53.546;9.974;2024-03-23T03:43:40;100586.66;;;8.91;100.00
31062;BME280;17724;53.546;9.974;2024-03-23T03:47:41;100562.06;;;8.96;98.80
31062;BME280;17724;53.546;9.974;2024-03-23T03:51:41;100567.94;;;9.26;98.54
31062;BME280;17724;53.546;9.974;2024-03-23T03:55:42;100542.13;;;8.83;97.46
31062;BME280;17724;53.546;9.974;2024-03-23T03:59:42;100572.72;;;9.36;97.36
31062;BME280;17724;53.546;9.974;2024-03-23T04:03:43;100566.38;;;9.13;97.02
31062;BME280;17724;53.546;9.974;2024-03-23T04:07:44;100550.53;;;8.77;99.35
31062;BME280;17724;53.546;9.974;2024-03-23T04:11:44;100556.28;;;8.97;98.49
31062;BME280;17724;53.546;9.974;2024-03-23T04:15:45;100561.94;;;9.07;98.44
31062;BME280;17724;53.546;9.974;2024-03-23T04:19:45;100556.56;;;8.96;96.84
31062;BME280;17724;53.546;9.974;2024-03-23T04:23:46;100545.56;;;8.74;97.30
31062;BME280;17724;53.546;9.974;2024-03-23T04:27:46;100531.66;;;8.58;97.39
31062;BME280;17724;53.546;9.974;2024-03-23T04:31:47;100530.28;;;9.00;96.56
31062;BME280;17724;53.546;9.974;2024-03-23T04:35:49;100535.44;;;8.96;96.55
31062;BME280;17724;53.546;9.974;2024-03-23T04:39:49;100564.50;;;8.75;96.74
31062;BME280;17724;53.546;9.974;2024-03-23T04:43:50;100570.97;;;8.69;97.46
31062;BME280;17724;53.546;9.974;2024-03-23T04:47:50;100564.44;;;8.70;97.31
31062;BME280;17724;53.546;9.974;2024-03-23T04:51:51;100560.47;;;8.44;98.79
31062;BME280;17724;53.546;9.974;2024-03-23T04:55:51;100561.09;;;8.68;98.32
31062;BME280;17724;53.546;9.974;2024-03-23T04:59:52;100544.16;;;9.10;96.99
31062;BME280;17724;53.546;9.974;2024-03-23T05:03:53;100523.50;;;8.63;96.13
31062;BME280;17724;53.546;9.974;2024-03-23T05:07:53;100527.34;;;8.84;95.59
31062;BME280;17724;53.546;9.974;2024-03-23T05:11:53;100541.19;;;8.95;95.82
31062;BME280;17724;53.546;9.974;2024-03-23T05:15:54;100534.06;;;8.94;95.79
31062;BME280;17724;53.546;9.974;2024-03-23T05:19:55;100528.03;;;8.97;94.19
31062;BME280;17724;53.546;9.974;2024-03-23T05:23:56;100533.53;;;8.97;94.07
31062;BME280;17724;53.546;9.974;2024-03-23T05:27:56;100529.50;;;9.04;93.85
31062;BME280;17724;53.546;9.974;2024-03-23T05:31:57;100523.66;;;9.18;92.74
31062;BME280;17724;53.546;9.974;2024-03-23T05:35:58;100543.13;;;9.38;91.96
31062;BME280;17724;53.546;9.974;2024-03-23T05:39:59;100530.06;;;9.50;91.30
31062;BME280;17724;53.546;9.974;2024-03-23T05:44:00;100501.00;;;9.05;91.16
31062;BME280;17724;53.546;9.974;2024-03-23T05:48:01;100513.44;;;9.13;91.00
31062;BME280;17724;53.546;9.974;2024-03-23T05:52:01;100502.28;;;9.20;90.97
31062;BME280;17724;53.546;9.974;2024-03-23T05:56:03;100484.69;;;8.94;91.67
31062;BME280;17724;53.546;9.974;2024-03-23T06:00:04;100494.19;;;8.86;93.23
31062;BME280;17724;53.546;9.974;2024-03-23T06:04:12;100504.19;;;8.97;92.12
31062;BME280;17724;53.546;9.974;2024-03-23T06:08:13;100500.22;;;8.88;93.53
31062;BME280;17724;53.546;9.974;2024-03-23T06:12:15;100499.28;;;8.99;92.45
31062;BME280;17724;53.546;9.974;2024-03-23T06:16:15;100498.97;;;8.57;93.86
31062;BME280;17724;53.546;9.974;2024-03-23T06:20:16;100508.03;;;8.74;93.88
31062;BME280;17724;53.546;9.974;2024-03-23T06:24:16;100503.50;;;8.46;95.14
31062;BME280;17724;53.546;9.974;2024-03-23T06:28:17;100492.78;;;8.83;93.76
31062;BME280;17724;53.546;9.974;2024-03-23T06:32:18;100494.81;;;8.71;93.07
31062;BME280;17724;53.546;9.974;2024-03-23T06:36:19;100483.13;;;8.81;93.42
31062;BME280;17724;53.546;9.974;2024-03-23T06:40:20;100488.13;;;8.45;93.64
31062;BME280;17724;53.546;9.974;2024-03-23T06:44:20;100493.78;;;8.77;93.02
31062;BME280;17724;53.546;9.974;2024-03-23T06:48:21;100488.19;;;8.89;93.19
31062;BME280;17724;53.546;9.974;2024-03-23T06:52:22;100495.91;;;8.92;92.48
31062;BME280;17724;53.546;9.974;2024-03-23T06:56:22;100484.66;;;8.72;92.84
31062;BME280;17724;53.546;9.974;2024-03-23T07:00:23;100481.41;;;8.97;92.67
31062;BME280;17724;53.546;9.974;2024-03-23T07:04:23;100481.97;;;9.21;91.43
31062;BME280;17724;53.546;9.974;2024-03-23T07:08:24;100490.47;;;8.97;90.65
31062;BME280;17724;53.546;9.974;2024-03-23T07:12:24;100483.53;;;9.11;90.51
31062;BME280;17724;53.546;9.974;2024-03-23T07:16:26;100471.72;;;8.89;91.08
31062;BME280;17724;53.546;9.974;2024-03-23T07:20:27;100469.31;;;9.15;91.03
31062;BME280;17724;53.546;9.974;2024-03-23T07:24:27;100468.66;;;9.07;90.65
31062;BME280;17724;53.546;9.974;2024-03-23T07:28:28;100490.81;;;9.50;89.75
31062;BME280;17724;53.546;9.974;2024-03-23T07:32:32;100483.19;;;9.30;89.90
31062;BME280;17724;53.546;9.974;2024-03-23T07:36:32;100473.69;;;9.16;90.61
31062;BME280;17724;53.546;9.974;2024-03-23T07:40:33;100480.53;;;9.40;88.25
31062;BME280;17724;53.546;9.974;2024-03-23T07:44:33;100484.31;;;9.61;88.39
31062;BME280;17724;53.546;9.974;2024-03-23T07:48:34;100480.06;;;9.21;89.86
31062;BME280;17724;53.546;9.974;2024-03-23T07:52:34;100477.16;;;9.33;90.01
31062;BME280;17724;53.546;9.974;2024-03-23T07:56:35;100478.78;;;9.29;88.68
31062;BME280;17724;53.546;9.974;2024-03-23T08:00:35;100470.78;;;10.14;87.54
31062;BME280;17724;53.546;9.974;2024-03-23T08:04:36;100474.56;;;10.92;84.04
31062;BME280;17724;53.546;9.974;2024-03-23T08:08:36;100480.47;;;11.26;78.02
31062;BME280;17724;53.546;9.974;2024-03-23T08:12:37;100470.97;;;11.85;76.87
31062;BME280;17724;53.546;9.974;2024-03-23T08:16:37;100475.59;;;12.51;74.26
31062;BME280;17724;53.546;9.974;2024-03-23T08:20:38;100475.06;;;13.19;69.06
31062;BME280;17724;53.546;9.974;2024-03-23T08:24:38;100473.59;;;13.86;66.79
31062;BME280;17724;53.546;9.974;2024-03-23T08:28:39;100470.31;;;13.79;64.75
31062;BME280;17724;53.546;9.974;2024-03-23T08:32:40;100459.00;;;14.39;64.34
31062;BME280;17724;53.546;9.974;2024-03-23T08:36:40;100451.59;;;14.34;63.08
31062;BME280;17724;53.546;9.974;2024-03-23T08:40:41;100457.84;;;14.45;61.62
31062;BME280;17724;53.546;9.974;2024-03-23T08:44:41;100447.25;;;14.23;59.86
31062;BME280;17724;53.546;9.974;2024-03-23T08:48:45;100446.34;;;13.69;63.30
31062;BME280;17724;53.546;9.974;2024-03-23T08:52:45;100445.06;;;13.57;62.46
31062;BME280;17724;53.546;9.974;2024-03-23T08:56:46;100440.22;;;14.36;61.93
31062;BME280;17724;53.546;9.974;2024-03-23T09:00:46;100447.47;;;14.02;58.50
31062;BME280;17724;53.546;9.974;2024-03-23T09:04:47;100432.63;;;13.93;58.55
31062;BME280;17724;53.546;9.974;2024-03-23T09:08:47;100433.56;;;13.39;58.68
31062;BME280;17724;53.546;9.974;2024-03-23T09:12:48;100434.28;;;14.47;56.64
31062;BME280;17724;53.546;9.974;2024-03-23T09:16:51;100414.13;;;14.18;54.65
31062;BME280;17724;53.546;9.974;2024-03-23T09:20:52;100420.31;;;13.75;54.56
31062;BME280;17724;53.546;9.974;2024-03-23T09:24:54;100425.34;;;13.29;57.04
31062;BME280;17724;53.546;9.974;2024-03-23T09:28:55;100429.69;;;12.80;57.12
31062;BME280;17724;53.546;9.974;2024-03-23T09:32:55;100430.94;;;12.49;59.42
31062;BME280;17724;53.546;9.974;2024-03-23T09:36:55;100423.22;;;13.55;53.61
31062;BME280;17724;53.546;9.974;2024-03-23T09:40:57;100430.56;;;12.71;56.35
31062;BME280;17724;53.546;9.974;2024-03-23T09:44:59;100416.09;;;12.19;57.80
31062;BME280;17724;53.546;9.974;2024-03-23T09:49:01;100408.66;;;11.74;59.84
31062;BME280;17724;53.546;9.974;2024-03-23T09:53:06;100402.06;;;11.95;60.26
31062;BME280;17724;53.546;9.974;2024-03-23T09:57:07;100411.44;;;11.99;59.81
31062;BME280;17724;53.546;9.974;2024-03-23T10:01:07;100403.69;;;12.22;60.12
31062;BME280;17724;53.546;9.974;2024-03-23T10:05:21;100403.38;;;12.28;58.59
31062;BME280;17724;53.546;9.974;2024-03-23T10:09:25;100392.50;;;12.73;56.53
31062;BME280;17724;53.546;9.974;2024-03-23T10:13:27;100390.72;;;12.97;56.10
31062;BME280;17724;53.546;9.974;2024-03-23T10:17:29;100386.88;;;13.43;55.20
31062;BME280;17724;53.546;9.974;2024-03-23T10:21:29;100376.41;;;12.90;54.21
31062;BME280;17724;53.546;9.974;2024-03-23T10:25:30;100374.72;;;12.94;53.03
31062;BME280;17724;53.546;9.974;2024-03-23T10:29:30;100372.09;;;13.18;53.00
31062;BME280;17724;53.546;9.974;2024-03-23T10:33:31;100378.19;;;13.15;52.25
31062;BME280;17724;53.546;9.974;2024-03-23T10:37:32;100369.72;;;12.96;53.57
31062;BME280;17724;53.546;9.974;2024-03-23T10:41:34;100354.03;;;12.32;57.49
31062;BME280;17724;53.546;9.974;2024-03-23T10:45:34;100371.97;;;12.19;63.60
31062;BME280;17724;53.546;9.974;2024-03-23T10:49:35;100369.25;;;12.14;62.62
31062;BME280;17724;53.546;9.974;2024-03-23T10:53:36;100376.41;;;12.15;63.43
31062;BME280;17724;53.546;9.974;2024-03-23T10:57:42;100381.94;;;12.10;64.33
31062;BME280;17724;53.546;9.974;2024-03-23T11:02:00;100367.34;;;11.69;67.59
31062;BME280;17724;53.546;9.974;2024-03-23T11:06:04;100334.84;;;11.15;67.17
31062;BME280;17724;53.546;9.974;2024-03-23T11:10:28;100352.19;;;11.66;68.96
31062;BME280;17724;53.546;9.974;2024-03-23T11:14:32;100342.28;;;11.60;67.54
31062;BME280;17724;53.546;9.974;2024-03-23T11:18:33;100346.41;;;11.68;66.76
31062;BME280;17724;53.546;9.974;2024-03-23T11:22:43;100346.97;;;11.95;67.54
31062;BME280;17724;53.546;9.974;2024-03-23T11:26:43;100340.06;;;11.67;60.79
31062;BME280;17724;53.546;9.974;2024-03-23T11:30:44;100342.00;;;11.31;62.08
31062;BME280;17724;53.546;9.974;2024-03-23T11:34:44;100340.88;;;11.12;63.17
31062;BME280;17724;53.546;9.974;2024-03-23T11:38:45;100345.59;;;11.21;63.93
31062;BME280;17724;53.546;9.974;2024-03-23T11:42:45;100337.59;;;11.35;62.53
31062;BME280;17724;53.546;9.974;2024-03-23T11:46:47;100343.94;;;11.41;62.12
31062;BME280;17724;53.546;9.974;2024-03-23T11:50:50;100319.97;;;11.51;61.18
31062;BME280;17724;53.546;9.974;2024-03-23T11:54:50;100328.50;;;11.19;60.18
31062;BME280;17724;53.546;9.974;2024-03-23T11:58:51;100332.66;;;11.22;60.71
31062;BME280;17724;53.546;9.974;2024-03-23T12:02:52;100340.38;;;11.50;58.74
31062;BME280;17724;53.546;9.974;2024-03-23T12:11:15;100385.16;;;10.90;61.28
31062;BME280;17724;53.546;9.974;2024-03-23T12:15:16;100357.59;;;10.84;62.21
31062;BME280;17724;53.546;9.974;2024-03-23T12:19:16;100359.91;;;11.23;60.73
31062;BME280;17724;53.546;9.974;2024-03-23T12:23:18;100341.72;;;11.07;57.42
31062;BME280;17724;53.546;9.974;2024-03-23T12:27:22;100337.31;;;11.37;61.43
31062;BME280;17724;53.546;9.974;2024-03-23T12:31:22;100344.47;;;11.07;59.15
31062;BME280;17724;53.546;9.974;2024-03-23T12:35:23;100365.97;;;11.30;61.46
31062;BME280;17724;53.546;9.974;2024-03-23T12:39:24;100401.44;;;11.01;62.44
31062;BME280;17724;53.546;9.974;2024-03-23T12:43:24;100387.56;;;10.71;63.01
31062;BME280;17724;53.546;9.974;2024-03-23T12:47:25;100382.06;;;10.76;65.38
31062;BME280;17724;53.546;9.974;2024-03-23T12:51:25;100388.22;;;10.35;63.47
31062;BME280;17724;53.546;9.974;2024-03-23T12:55:26;100383.09;;;10.54;66.65
31062;BME280;17724;53.546;9.974;2024-03-23T12:59:28;100401.25;;;10.60;65.54
31062;BME280;17724;53.546;9.974;2024-03-23T13:03:28;100381.28;;;9.21;66.87
31062;BME280;17724;53.546;9.974;2024-03-23T13:07:29;100374.19;;;9.57;70.91
31062;BME280;17724;53.546;9.974;2024-03-23T13:11:30;100380.22;;;9.92;71.18
31062;BME280;17724;53.546;9.974;2024-03-23T13:15:30;100383.16;;;9.43;71.40
31062;BME280;17724;53.546;9.974;2024-03-23T13:19:31;100372.25;;;9.53;70.45
31062;BME280;17724;53.546;9.974;2024-03-23T13:23:32;100376.94;;;9.57;71.16
31062;BME280;17724;53.546;9.974;2024-03-23T13:27:34;100379.88;;;9.46;69.95
31062;BME280;17724;53.546;9.974;2024-03-23T13:31:35;100395.41;;;9.62;72.64
31062;BME280;17724;53.546;9.974;2024-03-23T13:35:35;100371.59;;;9.13;74.46
31062;BME280;17724;53.546;9.974;2024-03-23T13:39:35;100365.47;;;9.33;74.98
31062;BME280;17724;53.546;9.974;2024-03-23T13:43:36;100372.16;;;9.75;73.57
31062;BME280;17724;53.546;9.974;2024-03-23T13:47:36;100364.28;;;9.51;72.50
31062;BME280;17724;53.546;9.974;2024-03-23T13:51:37;100367.94;;;9.30;71.76
31062;BME280;17724;53.546;9.974;2024-03-23T13:55:37;100366.19;;;9.19;72.54
31062;BME280;17724;53.546;9.974;2024-03-23T13:59:38;100375.69;;;9.38;71.70
31062;BME280;17724;53.546;9.974;2024-03-23T14:03:38;100377.69;;;9.85;71.76
31062;BME280;17724;53.546;9.974;2024-03-23T14:07:38;100384.13;;;9.31;69.04
31062;BME280;17724;53.546;9.974;2024-03-23T14:11:39;100384.78;;;9.44;69.29
31062;BME280;17724;53.546;9.974;2024-03-23T14:15:41;100393.34;;;9.84;67.87
31062;BME280;17724;53.546;9.974;2024-03-23T14:19:42;100382.50;;;9.62;68.92
31062;BME280;17724;53.546;9.974;2024-03-23T14:23:43;100394.03;;;10.02;69.95
31062;BME280;17724;53.546;9.974;2024-03-23T14:27:46;100390.41;;;10.33;67.27
31062;BME280;17724;53.546;9.974;2024-03-23T14:31:47;100390.22;;;10.08;66.04
31062;BME280;17724;53.546;9.974;2024-03-23T14:35:56;100386.56;;;10.29;65.80
31062;BME280;17724;53.546;9.974;2024-03-23T14:39:58;100387.84;;;9.79;66.26
31062;BME280;17724;53.546;9.974;2024-03-23T14:43:58;100375.69;;;10.12;64.98
31062;BME280;17724;53.546;9.974;2024-03-23T14:47:59;100369.06;;;10.61;64.67
31062;BME280;17724;53.546;9.974;2024-03-23T14:52:00;100362.38;;;10.31;62.71
31062;BME280;17724;53.546;9.974;2024-03-23T14:56:02;100378.50;;;10.23;65.68
31062;BME280;17724;53.546;9.974;2024-03-23T15:00:03;100408.44;;;10.19;68.90
31062;BME280;17724;53.546;9.974;2024-03-23T15:04:05;100393.88;;;10.19;73.07
31062;BME280;17724;53.546;9.974;2024-03-23T15:08:06;100403.91;;;9.98;72.54
31062;BME280;17724;53.546;9.974;2024-03-23T15:12:07;100390.66;;;10.32;76.49
31062;BME280;17724;53.546;9.974;2024-03-23T15:16:07;100386.81;;;9.91;75.10
31062;BME280;17724;53.546;9.974;2024-03-23T15:20:08;100376.72;;;9.64;77.65
31062;BME280;17724;53.546;9.974;2024-03-23T15:24:11;100370.47;;;9.36;77.21
31062;BME280;17724;53.546;9.974;2024-03-23T15:28:12;100368.53;;;9.69;77.37
31062;BME280;17724;53.546;9.974;2024-03-23T15:32:14;100367.50;;;9.43;75.88
31062;BME280;17724;53.546;9.974;2024-03-23T15:36:17;100362.91;;;9.86;79.03
31062;BME280;17724;53.546;9.974;2024-03-23T15:40:18;100361.31;;;10.00;81.34
31062;BME280;17724;53.546;9.974;2024-03-23T15:44:18;100372.41;;;10.16;81.75
31062;BME280;17724;53.546;9.974;2024-03-23T15:48:19;100368.66;;;10.27;80.24
31062;BME280;17724;53.546;9.974;2024-03-23T15:52:19;100371.72;;;10.30;79.37
31062;BME280;17724;53.546;9.974;2024-03-23T15:56:20;100370.31;;;9.85;76.41
31062;BME280;17724;53.546;9.974;2024-03-23T16:00:20;100369.81;;;9.56;78.53
31062;BME280;17724;53.546;9.974;2024-03-23T16:04:21;100372.41;;;10.16;79.22
31062;BME280;17724;53.546;9.974;2024-03-23T16:08:21;100372.56;;;10.41;76.98
31062;BME280;17724;53.546;9.974;2024-03-23T16:12:22;100358.97;;;10.19;78.26
31062;BME280;17724;53.546;9.974;2024-03-23T16:16:22;100361.09;;;10.07;76.19
31062;BME280;17724;53.546;9.974;2024-03-23T16:20:23;100352.16;;;9.84;75.70
31062;BME280;17724;53.546;9.974;2024-03-23T16:24:24;100354.31;;;9.77;76.03
31062;BME280;17724;53.546;9.974;2024-03-23T16:28:25;100366.75;;;9.53;74.09
31062;BME280;17724;53.546;9.974;2024-03-23T16:32:26;100357.44;;;9.22;74.61
31062;BME280;17724;53.546;9.974;2024-03-23T16:36:32;100345.78;;;9.09;74.17
31062;BME280;17724;53.546;9.974;2024-03-23T16:40:33;100361.25;;;9.53;74.61
31062;BME280;17724;53.546;9.974;2024-03-23T16:44:33;100361.31;;;9.26;73.40
31062;BME280;17724;53.546;9.974;2024-03-23T16:48:34;100362.81;;;9.38;73.05
31062;BME280;17724;53.546;9.974;2024-03-23T16:52:34;100367.34;;;9.55;71.06
31062;BME280;17724;53.546;9.974;2024-03-23T16:56:37;100357.06;;;9.45;73.36
31062;BME280;17724;53.546;9.974;2024-03-23T17:00:38;100361.28;;;9.90;73.68
31062;BME280;17724;53.546;9.974;2024-03-23T17:04:38;100350.91;;;9.65;69.90
31062;BME280;17724;53.546;9.974;2024-03-23T17:08:39;100349.91;;;9.39;71.04
31062;BME280;17724;53.546;9.974;2024-03-23T17:12:39;100344.09;;;9.35;72.43
31062;BME280;17724;53.546;9.974;2024-03-23T17:16:40;100341.66;;;9.07;70.06
31062;BME280;17724;53.546;9.974;2024-03-23T17:20:41;100339.22;;;9.10;71.08
31062;BME280;17724;53.546;9.974;2024-03-23T17:24:41;100340.38;;;8.66;71.61
31062;BME280;17724;53.546;9.974;2024-03-23T17:28:42;100332.59;;;9.06;72.21
31062;BME280;17724;53.546;9.974;2024-03-23T17:32:46;100335.69;;;9.15;71.54
31062;BME280;17724;53.546;9.974;2024-03-23T17:36:46;100335.66;;;8.83;71.05
31062;BME280;17724;53.546;9.974;2024-03-23T17:40:47;100339.78;;;9.45;73.68
31062;BME280;17724;53.546;9.974;2024-03-23T17:44:51;100345.34;;;9.92;77.30
31062;BME280;17724;53.546;9.974;2024-03-23T17:48:52;100339.66;;;10.09;75.86
31062;BME280;17724;53.546;9.974;2024-03-23T17:52:52;100339.34;;;10.43;76.09
31062;BME280;17724;53.546;9.974;2024-03-23T17:56:53;100337.00;;;10.24;72.42
31062;BME280;17724;53.546;9.974;2024-03-23T18:00:53;100330.06;;;10.11;73.71
31062;BME280;17724;53.546;9.974;2024-03-23T18:04:54;100338.53;;;10.00;75.47
31062;BME280;17724;53.546;9.974;2024-03-23T18:08:54;100326.00;;;9.72;74.14
31062;BME280;17724;53.546;9.974;2024-03-23T18:12:55;100320.81;;;9.75;77.93
31062;BME280;17724;53.546;9.974;2024-03-23T18:16:56;100333.25;;;9.51;77.21
31062;BME280;17724;53.546;9.974;2024-03-23T18:20:56;100325.19;;;9.76;77.05
31062;BME280;17724;53.546;9.974;2024-03-23T18:25:00;100328.75;;;9.72;75.88
31062;BME280;17724;53.546;9.974;2024-03-23T18:29:01;100331.16;;;9.63;75.56
31062;BME280;17724;53.546;9.974;2024-03-23T18:33:01;100331.63;;;9.50;75.50
31062;BME280;17724;53.546;9.974;2024-03-23T18:37:02;100325.00;;;9.46;77.39
31062;BME280;17724;53.546;9.974;2024-03-23T18:41:03;100324.75;;;9.20;77.44
31062;BME280;17724;53.546;9.974;2024-03-23T18:45:04;100327.03;;;9.28;80.11
31062;BME280;17724;53.546;9.974;2024-03-23T18:49:05;100323.72;;;9.26;79.34
31062;BME280;17724;53.546;9.974;2024-03-23T18:53:05;100322.28;;;9.19;80.17
31062;BME280;17724;53.546;9.974;2024-03-23T18:57:06;100314.63;;;9.21;79.27
31062;BME280;17724;53.546;9.974;2024-03-23T19:01:08;100315.97;;;9.18;79.49
31062;BME280;17724;53.546;9.974;2024-03-23T19:05:09;100310.50;;;8.91;80.95
31062;BME280;17724;53.546;9.974;2024-03-23T19:09:09;100317.63;;;9.19;83.04
31062;BME280;17724;53.546;9.974;2024-03-23T19:13:12;100319.91;;;9.27;79.71
31062;BME280;17724;53.546;9.974;2024-03-23T19:17:12;100313.44;;;9.11;80.36
31062;BME280;17724;53.546;9.974;2024-03-23T19:21:13;100320.38;;;9.19;82.19
31062;BME280;17724;53.546;9.974;2024-03-23T19:25:13;100319.28;;;9.20;82.29
31062;BME280;17724;53.546;9.974;2024-03-23T19:29:14;100305.72;;;9.41;86.09
31062;BME280;17724;53.546;9.974;2024-03-23T19:33:15;100306.47;;;9.31;84.86
31062;BME280;17724;53.546;9.974;2024-03-23T19:37:16;100303.94;;;9.24;84.22
31062;BME280;17724;53.546;9.974;2024-03-23T19:41:16;100296.59;;;9.30;85.38
31062;BME280;17724;53.546;9.974;2024-03-23T19:45:17;100303.59;;;9.16;81.56
31062;BME280;17724;53.546;9.974;2024-03-23T19:49:17;100307.81;;;8.96;81.50
31062;BME280;17724;53.546;9.974;2024-03-23T19:53:18;100312.47;;;9.28;83.70
31062;BME280;17724;53.546;9.974;2024-03-23T19:57:18;100311.34;;;9.61;86.01
31062;BME280;17724;53.546;9.974;2024-03-23T20:01:19;100324.00;;;9.62;84.28
31062;BME280;17724;53.546;9.974;2024-03-23T20:05:19;100317.59;;;9.46;84.10
31062;BME280;17724;53.546;9.974;2024-03-23T20:09:20;100309.22;;;7.67;86.15
31062;BME280;17724;53.546;9.974;2024-03-23T20:13:21;100305.00;;;7.59;93.22
31062;BME280;17724;53.546;9.974;2024-03-23T20:17:24;100291.78;;;7.73;94.84
31062;BME280;17724;53.546;9.974;2024-03-23T20:21:25;100287.84;;;8.03;93.47
31062;BME280;17724;53.546;9.974;2024-03-23T20:25:26;100271.75;;;8.55;98.25
31062;BME280;17724;53.546;9.974;2024-03-23T20:29:27;100269.16;;;8.22;95.35
31062;BME280;17724;53.546;9.974;2024-03-23T20:33:28;100272.09;;;8.59;94.91
31062;BME280;17724;53.546;9.974;2024-03-23T20:37:28;100254.81;;;8.36;92.30
31062;BME280;17724;53.546;9.974;2024-03-23T20:41:29;100265.41;;;8.50;92.05
31062;BME280;17724;53.546;9.974;2024-03-23T20:45:30;100257.63;;;8.42;90.37
31062;BME280;17724;53.546;9.974;2024-03-23T20:49:30;100256.28;;;8.44;89.85
31062;BME280;17724;53.546;9.974;2024-03-23T20:53:31;100259.59;;;8.24;87.58
31062;BME280;17724;53.546;9.974;2024-03-23T20:57:34;100254.81;;;8.36;87.55
31062;BME280;17724;53.546;9.974;2024-03-23T21:01:34;100253.75;;;8.37;86.27
31062;BME280;17724;53.546;9.974;2024-03-23T21:05:36;100238.44;;;8.42;86.21
31062;BME280;17724;53.546;9.974;2024-03-23T21:09:37;100243.84;;;8.36;87.08
31062;BME280;17724;53.546;9.974;2024-03-23T21:13:38;100246.16;;;8.23;86.50
31062;BME280;17724;53.546;9.974;2024-03-23T21:17:38;100237.72;;;8.29;86.97
31062;BME280;17724;53.546;9.974;2024-03-23T21:21:39;100228.50;;;8.35;86.17
31062;BME280;17724;53.546;9.974;2024-03-23T21:25:39;100245.53;;;8.15;84.88
31062;BME280;17724;53.546;9.974;2024-03-23T21:29:40;100226.88;;;8.12;84.01
31062;BME280;17724;53.546;9.974;2024-03-23T21:33:41;100235.59;;;8.09;84.79
31062;BME280;17724;53.546;9.974;2024-03-23T21:37:41;100227.00;;;8.01;84.58
31062;BME280;17724;53.546;9.974;2024-03-23T21:41:45;100217.13;;;8.00;83.78
31062;BME280;17724;53.546;9.974;2024-03-23T21:45:58;100219.31;;;7.76;83.84
31062;BME280;17724;53.546;9.974;2024-03-23T21:50:00;100226.25;;;7.83;83.74
31062;BME280;17724;53.546;9.974;2024-03-23T21:54:01;100223.19;;;7.80;84.57
31062;BME280;17724;53.546;9.974;2024-03-23T21:58:03;100217.56;;;7.48;83.07
31062;BME280;17724;53.546;9.974;2024-03-23T22:02:05;100219.91;;;7.61;83.74
31062;BME280;17724;53.546;9.974;2024-03-23T22:06:05;100219.34;;;7.81;85.56
31062;BME280;17724;53.546;9.974;2024-03-23T22:10:06;100207.28;;;7.99;85.24